Time;durP1;ratioP1;P1;durP2;ratioP2;P2;SDS_P1;SDS_P2;PMS_P1;PMS_P2;Temp;Humidity;BMP_temperature;BMP_pressure;BME280_temperature;BME280_humidity;BME280_pressure;Samples;Min_cycle;Max_cycle;Signal;HPM_P1;HPM_P2
2022/02/09 00:00:13;;;;;;;20.52;8.30;;;9.00;99.90;;;;;;4907470;28;20058;-85
2022/02/09 00:03:23;;;;;;;15.80;7.28;;;9.00;99.90;;;;;;4906415;28;20292;-87
2022/02/09 00:05:41;;;;;;;16.83;7.38;;;9.00;99.90;;;;;;4916605;28;20773;-85
2022/02/09 00:08:09;;;;;;;21.58;7.80;;;9.00;99.90;;;;;;4940740;28;20070;-84
2022/02/09 00:10:37;;;;;;;20.75;7.30;;;9.00;99.90;;;;;;4926784;28;20056;-88
2022/02/09 00:18:49;;;;;;;18.70;7.82;;;9.00;99.90;;;;;;4941050;28;20047;-87
2022/02/09 00:21:37;;;;;;;17.88;7.35;;;9.10;99.90;;;;;;4903033;28;20043;-87
2022/02/09 00:24:37;;;;;;;18.73;7.38;;;9.10;99.90;;;;;;4911852;28;20039;-86
2022/02/09 00:59:32;;;;;;;18.25;6.85;;;9.30;99.90;;;;;;4916726;28;20047;-87
2022/02/09 01:56:21;;;;;;;18.05;7.05;;;9.20;99.90;;;;;;4946735;28;20089;-85
2022/02/09 01:58:48;;;;;;;19.20;7.03;;;9.20;99.90;;;;;;4928102;28;20046;-86
2022/02/09 02:01:14;;;;;;;16.02;6.75;;;9.20;99.90;;;;;;4941878;28;20078;-86
2022/02/09 02:03:40;;;;;;;20.20;6.78;;;9.20;99.90;;;;;;4927981;28;20042;-86
2022/02/09 02:06:06;;;;;;;14.52;6.47;;;9.20;99.90;;;;;;4908377;28;20065;-85
2022/02/09 02:08:33;;;;;;;14.32;6.80;;;9.20;99.90;;;;;;4945115;28;20035;-86
2022/02/09 02:11:10;;;;;;;14.98;6.25;;;9.20;99.90;;;;;;4925144;28;20049;-85
2022/02/09 02:13:59;;;;;;;18.77;6.25;;;9.20;99.90;;;;;;4944536;28;20085;-87
2022/02/09 02:19:05;;;;;;;13.20;5.65;;;9.30;99.90;;;;;;4916594;28;20082;-87
2022/02/09 02:21:52;;;;;;;15.50;5.47;;;9.30;99.90;;;;;;4910481;28;20713;-85
2022/02/09 02:27:29;;;;;;;11.82;6.10;;;9.30;99.90;;;;;;4945894;28;20050;-85
2022/02/09 02:58:45;;;;;;;15.52;6.63;;;9.20;99.90;;;;;;4945766;28;20391;-86
2022/02/09 03:09:48;;;;;;;14.40;6.60;;;9.10;99.90;;;;;;4927234;28;20035;-86
2022/02/09 03:17:08;;;;;;;20.05;6.30;;;9.10;99.90;;;;;;4928408;28;20158;-86
2022/02/09 03:27:30;;;;;;;16.15;5.75;;;9.10;99.90;;;;;;4942035;28;20049;-84
2022/02/09 03:46:49;;;;;;;15.27;6.75;;;9.00;99.90;;;;;;4927102;28;20074;-85
2022/02/09 03:51:52;;;;;;;17.30;7.10;;;9.00;99.90;;;;;;4929367;28;20275;-86
2022/02/09 03:54:51;;;;;;;21.70;6.85;;;9.00;99.90;;;;;;4927702;28;20149;-85
2022/02/09 03:57:24;;;;;;;14.63;7.57;;;9.00;99.90;;;;;;4915104;28;20397;-87
2022/02/09 03:59:50;;;;;;;13.80;6.82;;;8.90;99.90;;;;;;4919357;28;20121;-86
2022/02/09 04:02:16;;;;;;;19.05;7.85;;;8.90;99.90;;;;;;4940801;28;20046;-85
2022/02/09 04:04:48;;;;;;;12.10;7.60;;;9.00;99.90;;;;;;4926019;28;20034;-86
2022/02/09 04:07:14;;;;;;;19.42;7.90;;;8.90;99.90;;;;;;4943006;28;20131;-87
2022/02/09 04:09:45;;;;;;;16.88;8.40;;;8.90;99.90;;;;;;4927576;28;20049;-84
2022/02/09 04:14:56;;;;;;;18.77;8.45;;;8.90;99.90;;;;;;4911689;28;20073;-86
2022/02/09 04:18:06;;;;;;;15.88;8.80;;;8.90;99.90;;;;;;4909285;28;20648;-86
2022/02/09 04:36:24;;;;;;;14.88;8.07;;;8.90;99.90;;;;;;4928272;28;20423;-85
2022/02/09 04:49:33;;;;;;;12.15;8.30;;;8.90;99.90;;;;;;4917168;28;20047;-84
2022/02/09 04:52:14;;;;;;;20.73;8.70;;;8.90;99.90;;;;;;4923179;28;20051;-87
2022/02/09 05:00:17;;;;;;;14.60;8.32;;;8.90;99.90;;;;;;4929798;28;20061;-85
2022/02/09 05:17:56;;;;;;;20.95;7.65;;;8.90;99.90;;;;;;4946256;28;20513;-85
2022/02/09 05:27:14;;;;;;;15.02;8.27;;;8.90;99.90;;;;;;4914878;28;20226;-87
2022/02/09 05:29:40;;;;;;;10.13;7.53;;;8.90;99.90;;;;;;4946286;28;20035;-85
2022/02/09 05:32:06;;;;;;;17.42;8.93;;;8.90;99.90;;;;;;4908174;28;20035;-84
2022/02/09 05:34:32;;;;;;;12.35;8.80;;;8.90;99.90;;;;;;4929388;28;20085;-86
2022/02/09 05:37:00;;;;;;;15.70;8.68;;;8.90;99.90;;;;;;4910624;28;20500;-87
2022/02/09 05:39:27;;;;;;;12.77;8.38;;;8.90;99.90;;;;;;4909953;28;20050;-85
2022/02/09 05:41:53;;;;;;;14.85;9.02;;;8.90;99.90;;;;;;4947403;28;20046;-86
2022/02/09 05:44:19;;;;;;;16.23;8.70;;;8.90;99.90;;;;;;4911033;28;20046;-84
2022/02/09 05:52:13;;;;;;;16.83;8.95;;;9.00;99.90;;;;;;4929849;28;20051;-85
2022/02/09 05:59:47;;;;;;;16.48;10.00;;;9.00;99.90;;;;;;4933329;28;20129;-84
2022/02/09 06:02:15;;;;;;;16.50;10.75;;;9.00;99.90;;;;;;4934520;28;20133;-86
2022/02/09 06:04:40;;;;;;;20.02;9.82;;;9.00;99.90;;;;;;4914850;28;20027;-87
2022/02/09 06:07:06;;;;;;;15.32;10.57;;;9.00;99.90;;;;;;4912834;28;20383;-86
2022/02/09 06:09:32;;;;;;;16.67;10.05;;;9.00;99.90;;;;;;4912691;28;20046;-86
2022/02/09 06:12:14;;;;;;;17.05;10.88;;;9.00;99.90;;;;;;4944907;28;21180;-85
2022/02/09 06:19:55;;;;;;;16.17;10.07;;;9.00;99.90;;;;;;4937047;28;20077;-84
2022/02/09 06:22:24;;;;;;;14.57;10.70;;;9.00;99.90;;;;;;4904018;28;20047;-85
2022/02/09 06:24:50;;;;;;;17.98;10.38;;;9.00;99.90;;;;;;4914443;28;20039;-85
2022/02/09 06:27:16;;;;;;;15.15;9.88;;;9.00;99.90;;;;;;4924064;28;20693;-85
2022/02/09 06:29:47;;;;;;;18.55;10.40;;;9.00;99.90;;;;;;4927634;28;20380;-85
2022/02/09 06:32:18;;;;;;;17.80;11.65;;;9.00;99.90;;;;;;4927444;28;20035;-87
2022/02/09 06:34:45;;;;;;;20.83;11.23;;;9.00;99.90;;;;;;4945376;28;20035;-84
2022/02/09 06:37:36;;;;;;;18.50;10.70;;;9.00;99.90;;;;;;4951113;28;20039;-85
2022/02/09 06:40:03;;;;;;;18.10;11.35;;;9.00;99.90;;;;;;4930046;28;20098;-86
2022/02/09 06:42:30;;;;;;;16.30;10.80;;;9.00;99.90;;;;;;4930882;28;20070;-84
2022/02/09 06:45:02;;;;;;;16.38;10.43;;;9.00;99.90;;;;;;4909778;28;20731;-85
2022/02/09 06:47:29;;;;;;;17.07;10.77;;;9.00;99.90;;;;;;4928034;28;20042;-85
2022/02/09 06:50:00;;;;;;;15.90;10.75;;;9.00;99.90;;;;;;4924708;28;20337;-85
2022/02/09 06:52:28;;;;;;;16.55;11.60;;;9.00;99.90;;;;;;4940726;28;20030;-86
2022/02/09 06:55:10;;;;;;;14.40;10.52;;;9.00;99.90;;;;;;4941143;28;20074;-87
2022/02/09 07:00:34;;;;;;;12.63;9.63;;;9.00;99.90;;;;;;4940267;28;20046;-85
2022/02/09 07:03:00;;;;;;;16.83;10.10;;;9.00;99.90;;;;;;4930675;28;20042;-83
2022/02/09 07:05:26;;;;;;;15.30;10.10;;;9.00;99.90;;;;;;4913634;28;20054;-88
2022/02/09 07:07:52;;;;;;;13.70;9.45;;;9.00;99.90;;;;;;4927303;28;20039;-84
2022/02/09 07:10:18;;;;;;;19.42;10.13;;;9.00;99.90;;;;;;4910404;28;20320;-85
2022/02/09 07:12:44;;;;;;;16.75;9.98;;;8.90;99.90;;;;;;4929061;28;20098;-87
2022/02/09 07:15:15;;;;;;;15.38;10.00;;;9.00;99.90;;;;;;4912068;28;20121;-85
2022/02/09 07:17:43;;;;;;;15.10;10.13;;;8.90;99.90;;;;;;4911747;28;20045;-85
2022/02/09 07:20:16;;;;;;;14.73;9.73;;;8.90;99.90;;;;;;4927016;28;20125;-86
2022/02/09 07:22:43;;;;;;;15.48;9.52;;;8.90;99.90;;;;;;4943406;28;20038;-84
2022/02/09 07:25:14;;;;;;;15.35;9.38;;;8.90;99.90;;;;;;4928072;28;20748;-85
2022/02/09 07:27:49;;;;;;;16.38;9.63;;;9.00;99.90;;;;;;4929462;28;20049;-85
2022/02/09 07:30:19;;;;;;;16.25;8.63;;;8.90;99.90;;;;;;4926270;28;20682;-85
2022/02/09 07:32:46;;;;;;;15.95;9.18;;;8.90;99.90;;;;;;4897872;28;20069;-86
2022/02/09 07:35:11;;;;;;;13.27;8.32;;;8.90;99.90;;;;;;4914218;28;20039;-84
2022/02/09 07:37:37;;;;;;;13.32;8.25;;;8.90;99.90;;;;;;4898166;28;20050;-85
2022/02/09 07:40:05;;;;;;;13.35;7.85;;;8.90;99.90;;;;;;4898812;28;20074;-85
2022/02/09 07:42:33;;;;;;;15.90;8.05;;;9.00;99.90;;;;;;4909798;28;20494;-83
2022/02/09 07:45:56;;;;;;;14.98;7.78;;;8.90;99.90;;;;;;4925758;28;20085;-88
2022/02/09 07:48:12;;;;;;;13.10;6.55;;;8.90;99.90;;;;;;4935323;28;20090;-85
2022/02/09 07:50:46;;;;;;;11.07;6.45;;;9.00;99.90;;;;;;4930157;28;20035;-86
2022/02/09 07:53:25;;;;;;;10.98;6.65;;;9.00;99.90;;;;;;4912360;28;20042;-84
2022/02/09 07:55:51;;;;;;;10.90;6.90;;;9.00;99.90;;;;;;4925953;28;20118;-85
2022/02/09 07:58:17;;;;;;;12.48;5.88;;;9.00;99.90;;;;;;4927019;28;20042;-85
2022/02/09 08:00:45;;;;;;;10.90;5.88;;;9.00;99.90;;;;;;4891472;28;20556;-85
2022/02/09 08:03:11;;;;;;;11.13;5.75;;;9.00;99.90;;;;;;4926530;28;20062;-84
2022/02/09 08:05:37;;;;;;;9.68;5.85;;;9.00;99.90;;;;;;4893971;28;20296;-84
2022/02/09 08:08:03;;;;;;;12.25;5.97;;;9.00;99.90;;;;;;4926822;28;20034;-85
2022/02/09 08:10:40;;;;;;;9.82;5.18;;;9.00;99.90;;;;;;4922525;28;20039;-83
2022/02/09 08:29:26;;;;;;;14.15;6.57;;;9.00;99.90;;;;;;4919808;28;20066;-86
2022/02/09 08:34:39;;;;;;;14.10;6.85;;;9.10;99.90;;;;;;4931752;28;20093;-86
2022/02/09 08:37:11;;;;;;;15.68;7.15;;;9.10;99.90;;;;;;4923764;28;20142;-86
2022/02/09 08:39:36;;;;;;;12.07;7.50;;;9.10;99.90;;;;;;4927308;28;20141;-85
2022/02/09 08:42:06;;;;;;;14.25;7.45;;;9.10;99.90;;;;;;4909463;28;20441;-87
2022/02/09 08:44:32;;;;;;;13.80;7.97;;;9.10;99.90;;;;;;4911060;28;20514;-86
2022/02/09 08:47:05;;;;;;;11.45;8.10;;;9.10;99.90;;;;;;4944136;28;20049;-89
2022/02/09 08:49:37;;;;;;;15.82;8.13;;;9.10;99.90;;;;;;4929413;28;20380;-87
2022/02/09 08:52:07;;;;;;;;;;;9.10;99.90;;;;;;4957269;28;20936;-88
2022/02/09 08:54:36;;;;;;;15.27;8.93;;;9.20;99.90;;;;;;4943929;28;20017;-87
2022/02/09 08:57:09;;;;;;;19.70;8.82;;;9.20;99.90;;;;;;4945431;28;20565;-87
2022/02/09 08:59:40;;;;;;;15.65;9.07;;;9.20;99.90;;;;;;4907614;28;20038;-88
2022/02/09 09:02:12;;;;;;;15.70;9.23;;;9.20;99.90;;;;;;4938387;28;20057;-87
2022/02/09 09:04:53;;;;;;;17.38;9.60;;;9.20;99.90;;;;;;4923359;28;20120;-87
2022/02/09 09:07:35;;;;;;;19.83;10.20;;;9.20;99.90;;;;;;4941641;28;20054;-89
2022/02/09 09:16:21;;;;;;;16.70;10.30;;;9.10;99.90;;;;;;4940183;28;20080;-88
2022/02/09 10:02:07;;;;;;;19.05;10.40;;;8.90;99.90;;;;;;4991921;28;20050;-90
2022/02/09 10:33:11;;;;;;;19.25;9.73;;;9.10;99.90;;;;;;5003313;28;20034;-89
2022/02/09 10:35:44;;;;;;;20.08;10.35;;;9.10;99.90;;;;;;4985081;28;20034;-87
2022/02/09 10:38:23;;;;;;;17.02;10.30;;;9.00;99.90;;;;;;4979686;28;20042;-92
2022/02/09 10:40:53;;;;;;;14.32;8.52;;;9.00;99.90;;;;;;4982773;28;20042;-88
2022/02/09 10:43:31;;;;;;;17.70;10.63;;;9.00;99.90;;;;;;4959887;28;20495;-89
2022/02/09 10:46:10;;;;;;;16.52;8.73;;;9.00;99.90;;;;;;4980859;28;20516;-89
2022/02/09 10:48:54;;;;;;;18.23;9.65;;;9.00;99.90;;;;;;4981008;28;20034;-89
2022/02/09 10:54:07;;;;;;;18.33;9.57;;;9.00;99.90;;;;;;4999446;28;20071;-89
2022/02/09 10:56:34;;;;;;;19.00;11.38;;;9.00;99.90;;;;;;4981062;28;20042;-90
2022/02/09 10:59:05;;;;;;;17.02;9.95;;;8.90;99.90;;;;;;4964057;28;20042;-87
2022/02/09 11:01:43;;;;;;;20.83;11.48;;;9.00;99.90;;;;;;4987894;28;20933;-89
2022/02/09 11:04:13;;;;;;;17.80;9.45;;;9.00;99.90;;;;;;4980915;28;20121;-90
2022/02/09 11:06:41;;;;;;;21.73;10.85;;;9.00;99.90;;;;;;5017400;28;20078;-88
2022/02/09 11:09:14;;;;;;;19.48;10.18;;;9.00;99.90;;;;;;4998028;28;20348;-90
2022/02/09 11:11:42;;;;;;;19.10;9.30;;;9.00;99.90;;;;;;4983405;28;20038;-88
2022/02/09 11:14:42;;;;;;;17.88;10.55;;;9.00;99.90;;;;;;4986718;28;20068;-88
2022/02/09 11:17:08;;;;;;;20.15;9.88;;;9.00;99.90;;;;;;4999004;28;20404;-89
2022/02/09 11:19:37;;;;;;;20.77;9.52;;;9.00;99.90;;;;;;4989077;28;20037;-91
2022/02/09 11:22:29;;;;;;;20.58;9.88;;;9.00;99.90;;;;;;4990502;28;20417;-88
2022/02/09 11:25:20;;;;;;;14.50;8.50;;;9.00;99.90;;;;;;5016347;28;20487;-90
2022/02/09 11:28:32;;;;;;;16.83;8.57;;;9.00;99.90;;;;;;4986003;28;20125;-91
2022/02/09 11:31:20;;;;;;;15.18;7.30;;;9.10;99.90;;;;;;4981934;28;20038;-88
2022/02/09 11:34:19;;;;;;;16.55;7.63;;;9.00;99.90;;;;;;4999981;28;20148;-90
2022/02/09 11:37:02;;;;;;;22.40;7.72;;;9.10;99.90;;;;;;5007409;28;20045;-88
2022/02/09 11:39:44;;;;;;;15.38;6.53;;;9.10;99.90;;;;;;4978585;28;20432;-88
2022/02/09 11:42:39;;;;;;;14.35;7.13;;;9.10;99.90;;;;;;4972546;28;20073;-92
2022/02/09 11:45:42;;;;;;;18.73;7.25;;;9.10;99.90;;;;;;4981543;28;20039;-85
2022/02/09 11:51:08;;;;;;;14.73;6.90;;;9.20;99.90;;;;;;5002261;28;20104;-87
2022/02/09 11:56:56;;;;;;;12.88;5.32;;;9.20;99.90;;;;;;5000531;28;20049;-87
2022/02/09 12:08:51;;;;;;;10.52;5.28;;;9.20;99.90;;;;;;5134262;27;20422;-89
2022/02/09 12:11:41;;;;;;;15.43;5.72;;;9.20;99.90;;;;;;5103152;27;20071;-87
2022/02/09 12:15:01;;;;;;;15.60;5.75;;;9.20;99.90;;;;;;5113538;27;20354;-89
2022/02/09 12:17:50;;;;;;;14.70;5.78;;;9.20;99.90;;;;;;5124970;27;20039;-90
2022/02/09 12:20:29;;;;;;;15.95;6.50;;;9.20;99.90;;;;;;5098370;27;20388;-88
2022/02/09 12:23:08;;;;;;;14.63;5.88;;;9.20;99.90;;;;;;5099569;28;20046;-90
2022/02/09 12:26:10;;;;;;;12.90;6.53;;;9.10;99.90;;;;;;5118229;27;20046;-90
2022/02/09 12:28:39;;;;;;;19.15;7.00;;;9.20;99.90;;;;;;5099000;27;20043;-91
2022/02/09 12:31:14;;;;;;;18.27;7.80;;;9.20;99.90;;;;;;5121281;27;20493;-90
2022/02/09 12:33:47;;;;;;;15.70;8.00;;;9.20;99.90;;;;;;5100001;28;20032;-88
2022/02/09 12:36:25;;;;;;;14.00;8.25;;;9.20;99.90;;;;;;5095912;28;20092;-90
2022/02/09 12:38:58;;;;;;;26.67;9.10;;;9.20;99.90;;;;;;5076809;28;20048;-91
2022/02/09 12:41:28;;;;;;;16.80;8.50;;;9.10;99.90;;;;;;5078821;28;20054;-88
2022/02/09 12:43:54;;;;;;;21.70;8.48;;;9.10;99.90;;;;;;5098442;28;20059;-86
2022/02/09 12:46:32;;;;;;;16.20;8.15;;;9.10;99.90;;;;;;5098323;28;20088;-89
2022/02/09 12:49:13;;;;;;;19.38;9.07;;;9.10;99.90;;;;;;5096460;28;20131;-89
2022/02/09 12:51:41;;;;;;;22.08;8.02;;;9.10;99.90;;;;;;5099663;28;20236;-88
2022/02/09 12:54:09;;;;;;;13.40;6.35;;;9.10;99.90;;;;;;5137057;27;20091;-89
2022/02/09 12:56:40;;;;;;;13.80;6.45;;;9.10;99.90;;;;;;5096548;28;20031;-90
2022/02/09 12:59:14;;;;;;;16.10;6.60;;;9.10;99.90;;;;;;5113091;28;20130;-89
2022/02/09 13:01:59;;;;;;;17.25;7.25;;;9.00;99.90;;;;;;5099678;28;20069;-88
2022/02/09 13:04:36;;;;;;;12.93;6.72;;;9.00;99.90;;;;;;5099589;28;20036;-89
2022/02/09 13:07:12;;;;;;;17.70;8.18;;;9.00;99.90;;;;;;5095104;28;20032;-89
2022/02/09 13:09:39;;;;;;;15.85;7.07;;;9.00;99.90;;;;;;5113656;27;20439;-88
2022/02/09 13:12:06;;;;;;;11.05;6.22;;;9.10;99.90;;;;;;5077266;28;20120;-90
2022/02/09 13:14:37;;;;;;;13.82;6.55;;;9.10;99.90;;;;;;5111366;27;20470;-89
2022/02/09 13:17:22;;;;;;;17.60;7.20;;;9.10;99.90;;;;;;5073335;28;20039;-89
2022/02/09 14:02:44;;;;;;;10.95;5.72;;;9.10;99.90;;;;;;5089031;28;20043;-87
2022/02/09 14:53:43;;;;;;;24.10;11.63;;;8.90;99.90;;;;;;5106994;27;20048;-87
2022/02/09 14:58:41;;;;;;;12.90;9.35;;;8.90;99.90;;;;;;5121301;27;20100;-88
2022/02/09 15:01:15;;;;;;;16.73;9.85;;;8.90;99.90;;;;;;5052604;28;20055;-87
2022/02/09 15:04:10;;;;;;;18.48;10.10;;;8.90;99.90;;;;;;5067617;28;20036;-87
2022/02/09 15:09:22;;;;;;;19.42;9.80;;;8.90;99.90;;;;;;5095470;28;20111;-88
2022/02/09 15:12:01;;;;;;;13.80;9.82;;;8.90;99.90;;;;;;5057314;28;20122;-87
2022/02/09 15:14:47;;;;;;;18.27;10.43;;;8.90;99.90;;;;;;5090709;28;20032;-89
2022/02/09 15:22:12;;;;;;;14.82;9.68;;;8.80;99.90;;;;;;5084775;28;20557;-90
2022/02/09 15:24:44;;;;;;;22.38;10.40;;;8.80;99.90;;;;;;5067851;28;20067;-86
2022/02/09 15:27:18;;;;;;;;;;;8.80;99.90;;;;;;5101068;27;20044;-89
2022/02/09 15:29:48;;;;;;;12.48;7.50;;;8.80;99.90;;;;;;5105996;27;19923;-88
2022/02/09 15:34:52;;;;;;;16.48;8.80;;;8.80;99.90;;;;;;5087696;28;20036;-89
2022/02/09 15:37:41;;;;;;;15.88;8.25;;;8.80;99.90;;;;;;5085297;28;20040;-87
2022/02/09 15:40:15;;;;;;;14.25;8.27;;;8.80;99.90;;;;;;5089209;27;20086;-88
2022/02/09 15:59:19;;;;;;;13.80;6.40;;;8.70;99.90;;;;;;5078823;28;20231;-88
2022/02/09 16:08:11;;;;;;;7.57;5.97;;;8.70;99.90;;;;;;5084379;28;20551;-87
2022/02/09 16:19:37;;;;;;;14.32;7.40;;;8.60;99.90;;;;;;5009024;28;20048;-88
2022/02/09 16:24:09;;;;;;;12.02;7.40;;;8.60;99.90;;;;;;5052237;28;20620;-90
2022/02/09 16:46:01;;;;;;;25.00;10.52;;;8.60;99.90;;;;;;5066979;28;20047;-89
2022/02/09 16:48:31;;;;;;;25.40;11.98;;;8.50;99.90;;;;;;5104237;27;20486;-88
2022/02/09 16:51:00;;;;;;;24.70;14.13;;;8.50;99.90;;;;;;5063409;28;20101;-88
2022/02/09 16:53:51;;;;;;;22.77;11.75;;;8.50;99.90;;;;;;5069474;28;20039;-88
2022/02/09 17:18:58;;;;;;;33.40;12.83;;;8.30;99.90;;;;;;5100818;28;20043;-87
2022/02/09 17:21:25;;;;;;;24.25;11.60;;;8.30;99.90;;;;;;5075084;28;20028;-88
2022/02/09 17:23:57;;;;;;;32.22;12.80;;;8.30;99.90;;;;;;5068377;28;20316;-88
2022/02/09 17:26:23;;;;;;;39.55;12.07;;;8.30;99.90;;;;;;5117778;27;20040;-87
2022/02/09 17:29:03;;;;;;;27.02;10.70;;;8.30;99.90;;;;;;5066863;28;20047;-88
2022/02/09 17:53:23;;;;;;;32.42;12.52;;;8.20;99.90;;;;;;5086971;28;20154;-88
2022/02/09 17:53:25;;;;;;;64.25;14.00;;;8.10;99.90;;;;;;5090182;28;20078;-87
2022/02/09 17:58:39;;;;;;;39.03;12.38;;;8.10;99.90;;;;;;5081759;28;20066;-87
2022/02/09 18:01:05;;;;;;;45.85;12.45;;;8.10;99.90;;;;;;5113089;27;20043;-87
2022/02/09 18:03:31;;;;;;;31.60;11.38;;;8.10;99.90;;;;;;5085942;28;20050;-87
2022/02/09 18:06:16;;;;;;;37.70;12.75;;;8.10;99.90;;;;;;5086862;28;20043;-87
2022/02/09 18:08:52;;;;;;;30.42;13.43;;;8.10;99.90;;;;;;5070669;28;20505;-87
2022/02/09 18:28:00;;;;;;;39.90;14.43;;;8.00;99.90;;;;;;5087761;28;20067;-87
2022/02/09 18:33:13;;;;;;;42.63;14.98;;;8.00;99.90;;;;;;5092247;28;20452;-87
2022/02/09 18:43:49;;;;;;;38.08;17.33;;;8.00;99.90;;;;;;5123780;27;20498;-88
2022/02/09 18:46:27;;;;;;;55.65;17.55;;;8.00;99.90;;;;;;5058822;28;20048;-87
2022/02/09 18:57:02;;;;;;;51.78;17.80;;;8.00;99.90;;;;;;5084046;28;20097;-87
2022/02/09 18:59:35;;;;;;;54.10;18.83;;;8.00;99.90;;;;;;5074226;28;20148;-87
2022/02/09 19:33:31;;;;;;;72.43;25.08;;;7.90;99.90;;;;;;5087414;28;20089;-89
2022/02/09 19:46:58;;;;;;;97.80;27.52;;;7.90;99.90;;;;;;5068192;28;20043;-86
2022/02/09 19:52:15;;;;;;;78.72;25.50;;;7.90;99.90;;;;;;5067132;28;20391;-88
2022/02/09 19:57:26;;;;;;;66.20;22.05;;;7.90;99.90;;;;;;5105918;27;20048;-87
2022/02/09 19:59:54;;;;;;;70.57;24.75;;;7.90;99.90;;;;;;5061462;28;20122;-87
2022/02/09 20:02:20;;;;;;;63.15;22.45;;;7.90;99.90;;;;;;5042608;28;20313;-88
2022/02/09 20:04:47;;;;;;;67.40;22.17;;;7.90;99.90;;;;;;5092911;28;20138;-89
2022/02/09 20:07:12;;;;;;;63.38;21.85;;;7.90;99.90;;;;;;5076588;28;20244;-88
2022/02/09 20:09:38;;;;;;;60.22;21.77;;;7.90;99.90;;;;;;5073073;28;20050;-87
2022/02/09 20:12:05;;;;;;;63.08;21.85;;;7.90;99.90;;;;;;5053610;28;20036;-88
2022/02/09 20:14:30;;;;;;;66.85;22.55;;;7.90;99.90;;;;;;5083215;28;20040;-87
2022/02/09 20:16:56;;;;;;;79.03;23.27;;;7.90;99.90;;;;;;5063244;28;20462;-87
2022/02/09 20:19:22;;;;;;;69.68;23.42;;;7.90;99.90;;;;;;5056451;28;20059;-86
2022/02/09 20:21:48;;;;;;;75.15;23.63;;;7.90;99.90;;;;;;5062835;28;20750;-88
2022/02/09 20:24:16;;;;;;;84.07;24.00;;;7.90;99.90;;;;;;5058250;28;20276;-87
2022/02/09 20:26:44;;;;;;;84.18;24.80;;;7.80;99.90;;;;;;5067257;28;20039;-87
2022/02/09 20:29:18;;;;;;;92.82;25.58;;;7.90;99.90;;;;;;5063726;28;20059;-87
2022/02/09 20:31:53;;;;;;;85.70;25.58;;;7.90;99.90;;;;;;5115851;27;20096;-88
2022/02/09 20:34:32;;;;;;;84.80;25.48;;;7.90;99.90;;;;;;5072345;28;20043;-89
2022/02/09 20:36:58;;;;;;;93.22;27.42;;;7.90;99.90;;;;;;5104561;27;20036;-88
2022/02/09 20:39:29;;;;;;;104.53;26.15;;;7.90;99.90;;;;;;5064555;28;20098;-88
2022/02/09 20:41:57;;;;;;;124.63;27.75;;;7.90;99.90;;;;;;5071326;28;21891;-88
2022/02/09 20:44:36;;;;;;;106.72;27.17;;;7.90;99.90;;;;;;5104402;27;20398;-88
2022/02/09 20:47:02;;;;;;;99.55;26.65;;;7.90;99.90;;;;;;5088024;28;20100;-88
2022/02/09 20:49:28;;;;;;;105.45;28.75;;;7.90;99.90;;;;;;5066207;28;20526;-88
2022/02/09 20:51:54;;;;;;;116.55;29.23;;;7.90;99.90;;;;;;5109379;27;20059;-88
2022/02/09 20:54:20;;;;;;;107.10;29.13;;;7.90;99.90;;;;;;5076002;28;20547;-89
2022/02/09 20:56:46;;;;;;;129.25;30.92;;;7.90;99.90;;;;;;5090229;28;20046;-90
2022/02/09 20:59:15;;;;;;;105.18;31.17;;;7.90;99.90;;;;;;5085229;28;20048;-89
2022/02/09 21:01:56;;;;;;;118.00;30.92;;;7.90;99.90;;;;;;5089571;28;20302;-89
2022/02/09 21:04:25;;;;;;;134.52;33.08;;;7.90;99.90;;;;;;5058527;28;20575;-89
2022/02/09 21:52:08;;;;;;;131.32;35.58;;;7.90;99.90;;;;;;4982646;28;20164;-87
2022/02/09 21:56:48;;;;;;;138.15;37.67;;;7.90;99.90;;;;;;4985550;28;20491;-87
2022/02/09 22:50:43;;;;;;;200.85;41.67;;;7.90;99.90;;;;;;4993066;28;20056;-85
2022/02/09 22:56:10;;;;;;;232.55;42.85;;;7.90;99.90;;;;;;4925499;28;20054;-87
2022/02/09 22:58:36;;;;;;;256.35;44.17;;;7.90;99.90;;;;;;4974232;28;20049;-86
2022/02/09 23:06:30;;;;;;;252.85;44.13;;;7.90;99.90;;;;;;5004098;28;20511;-87
2022/02/09 23:12:07;;;;;;;242.73;44.00;;;7.90;99.90;;;;;;5000890;28;20052;-88
2022/02/09 23:58:16;;;;;;;355.17;42.75;;;8.00;99.90;;;;;;5012999;28;20045;-87
